sensor_id;sensor_type;location;lat;lon;timestamp;temperature;humidity
66096;SHT31;53861;53.422;14.530;2024-03-17T00:02:19;6.17;73.73
66096;SHT31;53861;53.422;14.530;2024-03-17T00:04:46;6.15;73.74
66096;SHT31;53861;53.422;14.530;2024-03-17T00:07:13;6.17;73.79
66096;SHT31;53861;53.422;14.530;2024-03-17T00:09:40;6.21;73.66
66096;SHT31;53861;53.422;14.530;2024-03-17T00:12:08;6.12;73.43
66096;SHT31;53861;53.422;14.530;2024-03-17T00:14:34;6.12;73.39
66096;SHT31;53861;53.422;14.530;2024-03-17T00:17:02;6.18;73.87
66096;SHT31;53861;53.422;14.530;2024-03-17T00:19:30;6.21;73.08
66096;SHT31;53861;53.422;14.530;2024-03-17T00:21:57;6.14;73.27
66096;SHT31;53861;53.422;14.530;2024-03-17T00:24:24;6.20;73.03
66096;SHT31;53861;53.422;14.530;2024-03-17T00:26:51;6.18;73.68
66096;SHT31;53861;53.422;14.530;2024-03-17T00:29:17;6.21;73.47
66096;SHT31;53861;53.422;14.530;2024-03-17T00:31:44;6.12;73.53
66096;SHT31;53861;53.422;14.530;2024-03-17T00:34:11;6.14;74.11
66096;SHT31;53861;53.422;14.530;2024-03-17T00:36:39;6.14;74.11
66096;SHT31;53861;53.422;14.530;2024-03-17T00:39:05;6.10;74.43
66096;SHT31;53861;53.422;14.530;2024-03-17T00:41:33;6.14;75.34
66096;SHT31;53861;53.422;14.530;2024-03-17T00:43:59;6.08;74.71
66096;SHT31;53861;53.422;14.530;2024-03-17T00:46:26;6.07;75.25
66096;SHT31;53861;53.422;14.530;2024-03-17T00:48:52;6.10;75.59
66096;SHT31;53861;53.422;14.530;2024-03-17T00:51:20;6.17;75.38
66096;SHT31;53861;53.422;14.530;2024-03-17T00:53:48;6.15;75.59
66096;SHT31;53861;53.422;14.530;2024-03-17T00:56:15;6.11;75.72
66096;SHT31;53861;53.422;14.530;2024-03-17T00:58:42;6.10;76.16
66096;SHT31;53861;53.422;14.530;2024-03-17T01:01:10;6.18;76.03
66096;SHT31;53861;53.422;14.530;2024-03-17T01:03:37;6.17;76.40
66096;SHT31;53861;53.422;14.530;2024-03-17T01:06:05;6.11;76.40
66096;SHT31;53861;53.422;14.530;2024-03-17T01:08:31;6.00;76.76
66096;SHT31;53861;53.422;14.530;2024-03-17T01:11:00;5.93;77.08
66096;SHT31;53861;53.422;14.530;2024-03-17T01:13:27;6.00;77.68
66096;SHT31;53861;53.422;14.530;2024-03-17T01:15:54;5.94;77.91
66096;SHT31;53861;53.422;14.530;2024-03-17T01:18:20;6.01;77.82
66096;SHT31;53861;53.422;14.530;2024-03-17T01:20:47;6.05;78.15
66096;SHT31;53861;53.422;14.530;2024-03-17T01:23:13;6.04;78.04
66096;SHT31;53861;53.422;14.530;2024-03-17T01:25:41;5.97;78.18
66096;SHT31;53861;53.422;14.530;2024-03-17T01:28:08;6.01;78.38
66096;SHT31;53861;53.422;14.530;2024-03-17T01:30:37;6.02;78.91
66096;SHT31;53861;53.422;14.530;2024-03-17T01:33:03;5.97;78.29
66096;SHT31;53861;53.422;14.530;2024-03-17T01:35:31;6.01;78.23
66096;SHT31;53861;53.422;14.530;2024-03-17T01:37:57;6.02;78.29
66096;SHT31;53861;53.422;14.530;2024-03-17T01:40:24;6.01;78.88
66096;SHT31;53861;53.422;14.530;2024-03-17T01:42:51;5.98;78.86
66096;SHT31;53861;53.422;14.530;2024-03-17T01:45:27;5.98;78.74
66096;SHT31;53861;53.422;14.530;2024-03-17T01:47:54;6.00;79.66
66096;SHT31;53861;53.422;14.530;2024-03-17T01:50:24;5.94;79.64
66096;SHT31;53861;53.422;14.530;2024-03-17T01:52:52;5.94;80.30
66096;SHT31;53861;53.422;14.530;2024-03-17T01:55:20;5.83;81.77
66096;SHT31;53861;53.422;14.530;2024-03-17T01:57:48;5.77;82.43
66096;SHT31;53861;53.422;14.530;2024-03-17T02:00:16;5.71;82.67
66096;SHT31;53861;53.422;14.530;2024-03-17T02:02:44;5.73;83.28
66096;SHT31;53861;53.422;14.530;2024-03-17T02:05:11;5.71;83.47
66096;SHT31;53861;53.422;14.530;2024-03-17T02:07:37;5.60;84.04
66096;SHT31;53861;53.422;14.530;2024-03-17T02:10:05;5.51;84.37
66096;SHT31;53861;53.422;14.530;2024-03-17T02:12:32;5.53;84.07
66096;SHT31;53861;53.422;14.530;2024-03-17T02:14:59;5.56;84.18
66096;SHT31;53861;53.422;14.530;2024-03-17T02:17:25;5.47;84.64
66096;SHT31;53861;53.422;14.530;2024-03-17T02:19:55;5.53;84.56
66096;SHT31;53861;53.422;14.530;2024-03-17T02:22:23;5.49;84.98
66096;SHT31;53861;53.422;14.530;2024-03-17T02:24:50;5.49;84.56
66096;SHT31;53861;53.422;14.530;2024-03-17T02:27:17;5.49;84.82
66096;SHT31;53861;53.422;14.530;2024-03-17T02:29:44;5.50;84.85
66096;SHT31;53861;53.422;14.530;2024-03-17T02:32:12;5.56;84.96
66096;SHT31;53861;53.422;14.530;2024-03-17T02:34:38;5.43;85.16
66096;SHT31;53861;53.422;14.530;2024-03-17T02:37:07;5.51;84.91
66096;SHT31;53861;53.422;14.530;2024-03-17T02:39:34;5.50;85.23
66096;SHT31;53861;53.422;14.530;2024-03-17T02:42:02;5.53;84.47
66096;SHT31;53861;53.422;14.530;2024-03-17T02:44:31;5.51;83.80
66096;SHT31;53861;53.422;14.530;2024-03-17T02:46:59;5.57;83.54
66096;SHT31;53861;53.422;14.530;2024-03-17T02:49:27;5.56;83.53
66096;SHT31;53861;53.422;14.530;2024-03-17T02:52:11;5.51;83.27
66096;SHT31;53861;53.422;14.530;2024-03-17T02:54:40;5.50;82.91
66096;SHT31;53861;53.422;14.530;2024-03-17T02:57:07;5.46;82.94
66096;SHT31;53861;53.422;14.530;2024-03-17T02:59:34;5.49;81.31
66096;SHT31;53861;53.422;14.530;2024-03-17T03:02:01;5.47;80.84
66096;SHT31;53861;53.422;14.530;2024-03-17T03:04:29;5.43;80.58
66096;SHT31;53861;53.422;14.530;2024-03-17T03:06:56;5.49;80.62
66096;SHT31;53861;53.422;14.530;2024-03-17T03:09:23;5.54;80.86
66096;SHT31;53861;53.422;14.530;2024-03-17T03:11:58;5.39;80.82
66096;SHT31;53861;53.422;14.530;2024-03-17T03:14:26;5.37;81.07
66096;SHT31;53861;53.422;14.530;2024-03-17T03:16:53;5.37;80.94
66096;SHT31;53861;53.422;14.530;2024-03-17T03:19:21;5.25;80.94
66096;SHT31;53861;53.422;14.530;2024-03-17T03:21:48;5.23;81.26
66096;SHT31;53861;53.422;14.530;2024-03-17T03:24:15;5.23;81.48
66096;SHT31;53861;53.422;14.530;2024-03-17T03:26:43;5.26;81.63
66096;SHT31;53861;53.422;14.530;2024-03-17T03:29:12;5.26;81.63
66096;SHT31;53861;53.422;14.530;2024-03-17T03:31:40;5.26;81.44
66096;SHT31;53861;53.422;14.530;2024-03-17T03:34:07;5.15;81.87
66096;SHT31;53861;53.422;14.530;2024-03-17T03:36:35;5.13;82.16
66096;SHT31;53861;53.422;14.530;2024-03-17T03:39:02;5.08;82.27
66096;SHT31;53861;53.422;14.530;2024-03-17T03:41:31;4.95;82.34
66096;SHT31;53861;53.422;14.530;2024-03-17T03:43:59;4.86;82.56
66096;SHT31;53861;53.422;14.530;2024-03-17T03:46:27;4.84;82.36
66096;SHT31;53861;53.422;14.530;2024-03-17T03:48:54;4.69;82.53
66096;SHT31;53861;53.422;14.530;2024-03-17T03:51:22;4.55;82.73
66096;SHT31;53861;53.422;14.530;2024-03-17T03:53:50;4.60;82.69
66096;SHT31;53861;53.422;14.530;2024-03-17T03:56:17;4.64;82.59
66096;SHT31;53861;53.422;14.530;2024-03-17T03:58:46;4.69;82.75
66096;SHT31;53861;53.422;14.530;2024-03-17T04:01:15;4.62;81.63
66096;SHT31;53861;53.422;14.530;2024-03-17T04:03:49;4.55;81.58
66096;SHT31;53861;53.422;14.530;2024-03-17T04:06:16;4.57;80.93
66096;SHT31;53861;53.422;14.530;2024-03-17T04:08:43;4.62;81.22
66096;SHT31;53861;53.422;14.530;2024-03-17T04:11:11;4.58;81.27
66096;SHT31;53861;53.422;14.530;2024-03-17T04:13:38;4.54;81.18
66096;SHT31;53861;53.422;14.530;2024-03-17T04:16:06;4.53;80.72
66096;SHT31;53861;53.422;14.530;2024-03-17T04:18:34;4.36;81.00
66096;SHT31;53861;53.422;14.530;2024-03-17T04:21:04;4.41;80.76
66096;SHT31;53861;53.422;14.530;2024-03-17T04:23:32;4.44;80.08
66096;SHT31;53861;53.422;14.530;2024-03-17T04:26:00;4.43;80.75
66096;SHT31;53861;53.422;14.530;2024-03-17T04:28:29;4.43;80.83
66096;SHT31;53861;53.422;14.530;2024-03-17T04:31:03;4.47;80.34
66096;SHT31;53861;53.422;14.530;2024-03-17T04:33:32;4.48;80.40
66096;SHT31;53861;53.422;14.530;2024-03-17T04:35:59;4.53;79.75
66096;SHT31;53861;53.422;14.530;2024-03-17T04:38:27;4.36;78.76
66096;SHT31;53861;53.422;14.530;2024-03-17T04:40:55;4.48;79.31
66096;SHT31;53861;53.422;14.530;2024-03-17T04:43:31;4.48;78.06
66096;SHT31;53861;53.422;14.530;2024-03-17T04:45:59;4.41;78.16
66096;SHT31;53861;53.422;14.530;2024-03-17T04:48:27;4.47;78.38
66096;SHT31;53861;53.422;14.530;2024-03-17T04:50:54;4.40;77.41
66096;SHT31;53861;53.422;14.530;2024-03-17T04:53:22;4.37;77.78
66096;SHT31;53861;53.422;14.530;2024-03-17T04:55:59;4.47;78.23
66096;SHT31;53861;53.422;14.530;2024-03-17T04:58:26;4.55;77.89
66096;SHT31;53861;53.422;14.530;2024-03-17T05:00:53;4.58;77.95
66096;SHT31;53861;53.422;14.530;2024-03-17T05:03:20;4.50;77.50
66096;SHT31;53861;53.422;14.530;2024-03-17T05:05:48;4.51;77.36
66096;SHT31;53861;53.422;14.530;2024-03-17T05:08:15;4.47;77.99
66096;SHT31;53861;53.422;14.530;2024-03-17T05:10:42;4.45;77.81
66096;SHT31;53861;53.422;14.530;2024-03-17T05:13:10;4.47;78.34
66096;SHT31;53861;53.422;14.530;2024-03-17T05:15:38;4.43;77.70
66096;SHT31;53861;53.422;14.530;2024-03-17T05:18:05;4.38;78.23
66096;SHT31;53861;53.422;14.530;2024-03-17T05:20:32;4.36;78.44
66096;SHT31;53861;53.422;14.530;2024-03-17T05:22:59;4.41;78.33
66096;SHT31;53861;53.422;14.530;2024-03-17T05:25:26;4.27;78.20
66096;SHT31;53861;53.422;14.530;2024-03-17T05:27:53;4.30;78.41
66096;SHT31;53861;53.422;14.530;2024-03-17T05:30:21;4.24;78.10
66096;SHT31;53861;53.422;14.530;2024-03-17T05:32:49;4.33;77.94
66096;SHT31;53861;53.422;14.530;2024-03-17T05:35:16;4.44;77.36
66096;SHT31;53861;53.422;14.530;2024-03-17T05:37:43;4.43;77.92
66096;SHT31;53861;53.422;14.530;2024-03-17T05:40:11;4.45;77.28
66096;SHT31;53861;53.422;14.530;2024-03-17T05:42:41;4.54;77.08
66096;SHT31;53861;53.422;14.530;2024-03-17T05:45:09;4.54;76.24
66096;SHT31;53861;53.422;14.530;2024-03-17T05:47:38;4.47;76.57
66096;SHT31;53861;53.422;14.530;2024-03-17T05:50:07;4.44;77.02
66096;SHT31;53861;53.422;14.530;2024-03-17T05:52:35;4.44;76.65
66096;SHT31;53861;53.422;14.530;2024-03-17T05:55:03;4.51;77.41
66096;SHT31;53861;53.422;14.530;2024-03-17T05:57:30;4.43;78.07
66096;SHT31;53861;53.422;14.530;2024-03-17T05:59:57;4.51;78.46
66096;SHT31;53861;53.422;14.530;2024-03-17T06:02:25;4.45;78.35
66096;SHT31;53861;53.422;14.530;2024-03-17T06:04:53;4.41;78.02
66096;SHT31;53861;53.422;14.530;2024-03-17T06:07:20;4.36;78.01
66096;SHT31;53861;53.422;14.530;2024-03-17T06:09:48;4.47;78.15
66096;SHT31;53861;53.422;14.530;2024-03-17T06:12:15;4.40;78.09
66096;SHT31;53861;53.422;14.530;2024-03-17T06:14:42;4.37;78.44
66096;SHT31;53861;53.422;14.530;2024-03-17T06:17:09;4.47;78.75
66096;SHT31;53861;53.422;14.530;2024-03-17T06:19:37;4.41;78.54
66096;SHT31;53861;53.422;14.530;2024-03-17T06:22:05;4.36;78.44
66096;SHT31;53861;53.422;14.530;2024-03-17T06:24:32;4.34;78.30
66096;SHT31;53861;53.422;14.530;2024-03-17T06:26:59;4.36;77.44
66096;SHT31;53861;53.422;14.530;2024-03-17T06:29:27;4.40;77.31
66096;SHT31;53861;53.422;14.530;2024-03-17T06:31:55;4.29;77.00
66096;SHT31;53861;53.422;14.530;2024-03-17T06:34:22;4.14;77.28
66096;SHT31;53861;53.422;14.530;2024-03-17T06:36:49;4.27;77.00
66096;SHT31;53861;53.422;14.530;2024-03-17T06:39:18;4.18;76.25
66096;SHT31;53861;53.422;14.530;2024-03-17T06:41:47;4.20;76.41
66096;SHT31;53861;53.422;14.530;2024-03-17T06:44:14;4.32;76.04
66096;SHT31;53861;53.422;14.530;2024-03-17T06:46:41;4.36;75.89
66096;SHT31;53861;53.422;14.530;2024-03-17T06:49:09;4.40;75.64
66096;SHT31;53861;53.422;14.530;2024-03-17T06:51:37;4.37;75.80
66096;SHT31;53861;53.422;14.530;2024-03-17T06:54:04;4.29;74.75
66096;SHT31;53861;53.422;14.530;2024-03-17T06:56:32;4.29;75.24
66096;SHT31;53861;53.422;14.530;2024-03-17T06:59:00;4.43;75.45
66096;SHT31;53861;53.422;14.530;2024-03-17T07:01:27;4.45;74.82
66096;SHT31;53861;53.422;14.530;2024-03-17T07:03:54;4.61;75.09
66096;SHT31;53861;53.422;14.530;2024-03-17T07:06:21;4.44;75.85
66096;SHT31;53861;53.422;14.530;2024-03-17T07:08:49;4.50;75.49
66096;SHT31;53861;53.422;14.530;2024-03-17T07:11:16;4.55;75.67
66096;SHT31;53861;53.422;14.530;2024-03-17T07:13:44;4.41;75.73
66096;SHT31;53861;53.422;14.530;2024-03-17T07:16:12;4.50;76.60
66096;SHT31;53861;53.422;14.530;2024-03-17T07:18:39;4.53;76.88
66096;SHT31;53861;53.422;14.530;2024-03-17T07:21:08;4.85;75.75
66096;SHT31;53861;53.422;14.530;2024-03-17T07:23:36;4.53;76.95
66096;SHT31;53861;53.422;14.530;2024-03-17T07:26:04;4.76;77.12
66096;SHT31;53861;53.422;14.530;2024-03-17T07:28:31;4.79;76.57
66096;SHT31;53861;53.422;14.530;2024-03-17T07:31:00;4.67;77.41
66096;SHT31;53861;53.422;14.530;2024-03-17T07:33:27;4.61;77.85
66096;SHT31;53861;53.422;14.530;2024-03-17T07:35:56;4.67;77.30
66096;SHT31;53861;53.422;14.530;2024-03-17T07:38:27;4.75;77.97
66096;SHT31;53861;53.422;14.530;2024-03-17T07:40:58;4.62;77.97
66096;SHT31;53861;53.422;14.530;2024-03-17T07:43:26;4.74;78.69
66096;SHT31;53861;53.422;14.530;2024-03-17T07:45:58;4.79;77.69
66096;SHT31;53861;53.422;14.530;2024-03-17T07:48:25;4.71;78.25
66096;SHT31;53861;53.422;14.530;2024-03-17T07:50:57;4.76;78.35
66096;SHT31;53861;53.422;14.530;2024-03-17T07:53:24;4.55;79.09
66096;SHT31;53861;53.422;14.530;2024-03-17T07:56:00;4.79;78.56
66096;SHT31;53861;53.422;14.530;2024-03-17T07:58:27;4.67;78.46
66096;SHT31;53861;53.422;14.530;2024-03-17T08:00:58;4.74;79.24
66096;SHT31;53861;53.422;14.530;2024-03-17T08:03:28;4.86;78.13
66096;SHT31;53861;53.422;14.530;2024-03-17T08:06:01;4.96;77.65
66096;SHT31;53861;53.422;14.530;2024-03-17T08:08:28;5.16;77.33
66096;SHT31;53861;53.422;14.530;2024-03-17T08:10:55;5.36;77.02
66096;SHT31;53861;53.422;14.530;2024-03-17T08:13:23;5.39;76.65
66096;SHT31;53861;53.422;14.530;2024-03-17T08:15:55;5.40;76.35
66096;SHT31;53861;53.422;14.530;2024-03-17T08:18:23;7.20;75.74
66096;SHT31;53861;53.422;14.530;2024-03-17T08:20:51;8.49;68.75
66096;SHT31;53861;53.422;14.530;2024-03-17T08:23:21;10.34;67.16
66096;SHT31;53861;53.422;14.530;2024-03-17T08:25:52;8.88;65.53
66096;SHT31;53861;53.422;14.530;2024-03-17T08:28:19;7.58;68.79
66096;SHT31;53861;53.422;14.530;2024-03-17T08:30:51;6.92;72.19
66096;SHT31;53861;53.422;14.530;2024-03-17T08:33:19;6.14;72.24
66096;SHT31;53861;53.422;14.530;2024-03-17T08:35:55;6.17;73.37
66096;SHT31;53861;53.422;14.530;2024-03-17T08:38:22;5.90;73.46
66096;SHT31;53861;53.422;14.530;2024-03-17T08:40:50;5.91;72.70
66096;SHT31;53861;53.422;14.530;2024-03-17T08:43:17;5.39;73.96
66096;SHT31;53861;53.422;14.530;2024-03-17T08:45:45;5.54;74.94
66096;SHT31;53861;53.422;14.530;2024-03-17T08:48:14;5.86;74.72
66096;SHT31;53861;53.422;14.530;2024-03-17T08:50:50;5.97;74.33
66096;SHT31;53861;53.422;14.530;2024-03-17T08:53:18;6.33;73.93
66096;SHT31;53861;53.422;14.530;2024-03-17T08:55:48;6.53;74.68
66096;SHT31;53861;53.422;14.530;2024-03-17T08:58:21;6.59;75.05
66096;SHT31;53861;53.422;14.530;2024-03-17T09:00:49;6.61;74.29
66096;SHT31;53861;53.422;14.530;2024-03-17T09:03:18;6.68;73.97
66096;SHT31;53861;53.422;14.530;2024-03-17T09:05:51;6.25;75.32
66096;SHT31;53861;53.422;14.530;2024-03-17T09:08:23;6.21;74.63
66096;SHT31;53861;53.422;14.530;2024-03-17T09:10:51;6.15;76.36
66096;SHT31;53861;53.422;14.530;2024-03-17T09:13:20;5.95;75.54
66096;SHT31;53861;53.422;14.530;2024-03-17T09:15:50;6.05;74.59
66096;SHT31;53861;53.422;14.530;2024-03-17T09:18:17;6.05;74.27
66096;SHT31;53861;53.422;14.530;2024-03-17T09:20:45;6.12;74.84
66096;SHT31;53861;53.422;14.530;2024-03-17T09:23:12;6.01;73.85
66096;SHT31;53861;53.422;14.530;2024-03-17T09:25:41;5.80;73.60
66096;SHT31;53861;53.422;14.530;2024-03-17T09:28:08;5.77;73.62
66096;SHT31;53861;53.422;14.530;2024-03-17T09:30:37;6.21;72.32
66096;SHT31;53861;53.422;14.530;2024-03-17T09:33:04;6.29;71.88
66096;SHT31;53861;53.422;14.530;2024-03-17T09:35:32;6.36;72.10
66096;SHT31;53861;53.422;14.530;2024-03-17T09:37:59;7.03;72.95
66096;SHT31;53861;53.422;14.530;2024-03-17T09:40:28;8.34;70.54
66096;SHT31;53861;53.422;14.530;2024-03-17T09:42:56;8.43;68.67
66096;SHT31;53861;53.422;14.530;2024-03-17T09:45:24;7.89;69.46
66096;SHT31;53861;53.422;14.530;2024-03-17T09:47:54;7.62;69.38
66096;SHT31;53861;53.422;14.530;2024-03-17T09:50:22;7.96;68.31
66096;SHT31;53861;53.422;14.530;2024-03-17T09:52:50;7.76;69.77
66096;SHT31;53861;53.422;14.530;2024-03-17T09:55:20;7.27;69.65
66096;SHT31;53861;53.422;14.530;2024-03-17T09:57:53;6.75;70.41
66096;SHT31;53861;53.422;14.530;2024-03-17T10:00:22;6.55;71.62
66096;SHT31;53861;53.422;14.530;2024-03-17T10:02:49;6.65;71.46
66096;SHT31;53861;53.422;14.530;2024-03-17T10:05:20;6.61;72.04
66096;SHT31;53861;53.422;14.530;2024-03-17T10:07:51;6.14;72.49
66096;SHT31;53861;53.422;14.530;2024-03-17T10:10:20;5.97;73.44
66096;SHT31;53861;53.422;14.530;2024-03-17T10:12:49;6.08;74.82
66096;SHT31;53861;53.422;14.530;2024-03-17T10:15:19;6.57;75.72
66096;SHT31;53861;53.422;14.530;2024-03-17T10:17:51;6.45;73.94
66096;SHT31;53861;53.422;14.530;2024-03-17T10:20:21;6.36;74.76
66096;SHT31;53861;53.422;14.530;2024-03-17T10:23:02;6.49;75.36
66096;SHT31;53861;53.422;14.530;2024-03-17T10:25:32;6.72;77.94
66096;SHT31;53861;53.422;14.530;2024-03-17T10:28:00;6.79;78.80
66096;SHT31;53861;53.422;14.530;2024-03-17T10:30:28;7.17;78.98
66096;SHT31;53861;53.422;14.530;2024-03-17T10:32:58;7.31;78.85
66096;SHT31;53861;53.422;14.530;2024-03-17T10:35:27;7.20;78.34
66096;SHT31;53861;53.422;14.530;2024-03-17T10:37:56;7.14;76.50
66096;SHT31;53861;53.422;14.530;2024-03-17T10:40:24;7.67;75.30
66096;SHT31;53861;53.422;14.530;2024-03-17T10:42:53;7.47;74.71
66096;SHT31;53861;53.422;14.530;2024-03-17T10:45:21;7.55;73.80
66096;SHT31;53861;53.422;14.530;2024-03-17T10:47:49;7.54;73.66
66096;SHT31;53861;53.422;14.530;2024-03-17T10:50:19;7.59;73.97
66096;SHT31;53861;53.422;14.530;2024-03-17T10:52:48;7.57;72.29
66096;SHT31;53861;53.422;14.530;2024-03-17T10:55:28;7.54;72.81
66096;SHT31;53861;53.422;14.530;2024-03-17T10:57:59;7.28;72.02
66096;SHT31;53861;53.422;14.530;2024-03-17T11:00:31;7.28;73.50
66096;SHT31;53861;53.422;14.530;2024-03-17T11:03:03;7.31;72.74
66096;SHT31;53861;53.422;14.530;2024-03-17T11:05:32;7.15;71.49
66096;SHT31;53861;53.422;14.530;2024-03-17T11:08:06;7.55;71.95
66096;SHT31;53861;53.422;14.530;2024-03-17T11:10:55;7.92;70.42
66096;SHT31;53861;53.422;14.530;2024-03-17T11:13:23;7.64;68.99
66096;SHT31;53861;53.422;14.530;2024-03-17T11:15:57;7.75;70.37
66096;SHT31;53861;53.422;14.530;2024-03-17T11:18:39;7.30;70.80
66096;SHT31;53861;53.422;14.530;2024-03-17T11:21:21;7.37;70.94
66096;SHT31;53861;53.422;14.530;2024-03-17T11:24:18;7.58;70.83
66096;SHT31;53861;53.422;14.530;2024-03-17T11:26:46;7.01;70.26
66096;SHT31;53861;53.422;14.530;2024-03-17T11:29:27;6.83;71.88
66096;SHT31;53861;53.422;14.530;2024-03-17T11:31:55;6.55;70.68
66096;SHT31;53861;53.422;14.530;2024-03-17T11:34:27;6.38;69.80
66096;SHT31;53861;53.422;14.530;2024-03-17T11:36:59;6.43;71.87
66096;SHT31;53861;53.422;14.530;2024-03-17T11:39:49;6.76;71.40
66096;SHT31;53861;53.422;14.530;2024-03-17T11:42:18;6.82;69.30
66096;SHT31;53861;53.422;14.530;2024-03-17T11:44:57;6.87;70.82
66096;SHT31;53861;53.422;14.530;2024-03-17T11:47:33;7.07;69.75
66096;SHT31;53861;53.422;14.530;2024-03-17T11:50:03;6.61;70.36
66096;SHT31;53861;53.422;14.530;2024-03-17T11:52:32;6.52;71.59
66096;SHT31;53861;53.422;14.530;2024-03-17T11:54:58;6.36;72.01
66096;SHT31;53861;53.422;14.530;2024-03-17T11:57:26;6.52;72.26
66096;SHT31;53861;53.422;14.530;2024-03-17T11:59:59;6.25;71.54
66096;SHT31;53861;53.422;14.530;2024-03-17T12:02:28;6.31;71.96
66096;SHT31;53861;53.422;14.530;2024-03-17T12:04:59;6.69;74.45
66096;SHT31;53861;53.422;14.530;2024-03-17T12:07:27;6.71;72.26
66096;SHT31;53861;53.422;14.530;2024-03-17T12:09:55;7.13;71.82
66096;SHT31;53861;53.422;14.530;2024-03-17T12:12:27;7.23;70.57
66096;SHT31;53861;53.422;14.530;2024-03-17T12:15:05;7.78;69.38
66096;SHT31;53861;53.422;14.530;2024-03-17T12:17:38;7.50;69.88
66096;SHT31;53861;53.422;14.530;2024-03-17T12:20:04;7.43;69.57
66096;SHT31;53861;53.422;14.530;2024-03-17T12:22:35;7.50;68.97
66096;SHT31;53861;53.422;14.530;2024-03-17T12:25:17;7.08;69.22
66096;SHT31;53861;53.422;14.530;2024-03-17T12:27:46;6.46;69.81
66096;SHT31;53861;53.422;14.530;2024-03-17T12:30:14;6.50;69.93
66096;SHT31;53861;53.422;14.530;2024-03-17T12:32:43;6.75;70.61
66096;SHT31;53861;53.422;14.530;2024-03-17T12:35:13;7.11;69.76
66096;SHT31;53861;53.422;14.530;2024-03-17T12:37:43;7.18;69.36
66096;SHT31;53861;53.422;14.530;2024-03-17T12:40:20;7.18;69.49
66096;SHT31;53861;53.422;14.530;2024-03-17T12:42:50;6.42;71.02
66096;SHT31;53861;53.422;14.530;2024-03-17T12:45:20;6.07;71.14
66096;SHT31;53861;53.422;14.530;2024-03-17T12:47:49;6.53;71.35
66096;SHT31;53861;53.422;14.530;2024-03-17T12:50:15;6.92;72.74
66096;SHT31;53861;53.422;14.530;2024-03-17T12:52:52;7.23;73.15
66096;SHT31;53861;53.422;14.530;2024-03-17T12:55:20;6.92;71.72
66096;SHT31;53861;53.422;14.530;2024-03-17T12:58:06;7.71;71.08
66096;SHT31;53861;53.422;14.530;2024-03-17T13:00:59;7.81;70.53
66096;SHT31;53861;53.422;14.530;2024-03-17T13:03:27;7.85;69.07
66096;SHT31;53861;53.422;14.530;2024-03-17T13:05:57;7.99;69.78
66096;SHT31;53861;53.422;14.530;2024-03-17T13:08:26;7.89;68.82
66096;SHT31;53861;53.422;14.530;2024-03-17T13:11:16;7.58;66.72
66096;SHT31;53861;53.422;14.530;2024-03-17T13:13:45;7.79;67.43
66096;SHT31;53861;53.422;14.530;2024-03-17T13:16:14;8.33;66.90
66096;SHT31;53861;53.422;14.530;2024-03-17T13:18:42;8.22;64.72
66096;SHT31;53861;53.422;14.530;2024-03-17T13:21:09;9.16;64.81
66096;SHT31;53861;53.422;14.530;2024-03-17T13:23:39;13.03;57.23
66096;SHT31;53861;53.422;14.530;2024-03-17T13:26:16;12.75;57.59
66096;SHT31;53861;53.422;14.530;2024-03-17T13:28:43;12.92;59.27
66096;SHT31;53861;53.422;14.530;2024-03-17T13:31:13;17.66;51.83
66096;SHT31;53861;53.422;14.530;2024-03-17T13:33:40;13.68;51.52
66096;SHT31;53861;53.422;14.530;2024-03-17T13:36:08;13.30;52.81
66096;SHT31;53861;53.422;14.530;2024-03-17T13:38:35;11.47;57.24
66096;SHT31;53861;53.422;14.530;2024-03-17T13:41:03;9.84;64.19
66096;SHT31;53861;53.422;14.530;2024-03-17T13:43:35;9.07;67.73
66096;SHT31;53861;53.422;14.530;2024-03-17T13:46:07;8.26;69.17
66096;SHT31;53861;53.422;14.530;2024-03-17T13:48:35;8.28;70.39
66096;SHT31;53861;53.422;14.530;2024-03-17T13:51:03;8.32;71.08
66096;SHT31;53861;53.422;14.530;2024-03-17T13:53:40;8.68;68.12
66096;SHT31;53861;53.422;14.530;2024-03-17T13:56:37;8.80;69.22
66096;SHT31;53861;53.422;14.530;2024-03-17T13:59:19;8.95;69.45
66096;SHT31;53861;53.422;14.530;2024-03-17T14:01:47;13.14;61.84
66096;SHT31;53861;53.422;14.530;2024-03-17T14:04:16;11.00;64.23
66096;SHT31;53861;53.422;14.530;2024-03-17T14:06:47;11.69;60.57
66096;SHT31;53861;53.422;14.530;2024-03-17T14:09:15;14.79;53.22
66096;SHT31;53861;53.422;14.530;2024-03-17T14:11:44;11.39;62.41
66096;SHT31;53861;53.422;14.530;2024-03-17T14:14:26;10.21;64.91
66096;SHT31;53861;53.422;14.530;2024-03-17T14:16:54;9.19;68.04
66096;SHT31;53861;53.422;14.530;2024-03-17T14:19:26;8.23;68.81
66096;SHT31;53861;53.422;14.530;2024-03-17T14:21:55;7.79;70.34
66096;SHT31;53861;53.422;14.530;2024-03-17T14:24:22;7.71;70.55
66096;SHT31;53861;53.422;14.530;2024-03-17T14:26:50;7.38;71.50
66096;SHT31;53861;53.422;14.530;2024-03-17T14:29:18;7.50;70.29
66096;SHT31;53861;53.422;14.530;2024-03-17T14:31:45;7.37;71.91
66096;SHT31;53861;53.422;14.530;2024-03-17T14:34:14;7.20;71.77
66096;SHT31;53861;53.422;14.530;2024-03-17T14:36:43;8.56;69.07
66096;SHT31;53861;53.422;14.530;2024-03-17T14:39:13;8.49;70.05
66096;SHT31;53861;53.422;14.530;2024-03-17T14:41:48;8.51;69.05
66096;SHT31;53861;53.422;14.530;2024-03-17T14:44:16;16.41;57.21
66096;SHT31;53861;53.422;14.530;2024-03-17T14:46:44;19.26;44.50
66096;SHT31;53861;53.422;14.530;2024-03-17T14:49:24;12.89;56.66
66096;SHT31;53861;53.422;14.530;2024-03-17T14:51:53;10.47;63.00
66096;SHT31;53861;53.422;14.530;2024-03-17T14:54:22;8.50;66.93
66096;SHT31;53861;53.422;14.530;2024-03-17T14:56:49;8.37;67.98
66096;SHT31;53861;53.422;14.530;2024-03-17T14:59:17;8.28;68.62
66096;SHT31;53861;53.422;14.530;2024-03-17T15:01:46;7.27;68.71
66096;SHT31;53861;53.422;14.530;2024-03-17T15:04:14;7.34;70.07
66096;SHT31;53861;53.422;14.530;2024-03-17T15:06:41;8.03;71.73
66096;SHT31;53861;53.422;14.530;2024-03-17T15:09:09;9.75;65.57
66096;SHT31;53861;53.422;14.530;2024-03-17T15:11:38;11.44;65.52
66096;SHT31;53861;53.422;14.530;2024-03-17T15:14:05;12.12;62.77
66096;SHT31;53861;53.422;14.530;2024-03-17T15:16:37;11.08;63.16
66096;SHT31;53861;53.422;14.530;2024-03-17T15:19:08;9.73;65.34
66096;SHT31;53861;53.422;14.530;2024-03-17T15:21:35;8.71;65.70
66096;SHT31;53861;53.422;14.530;2024-03-17T15:24:03;7.88;68.19
66096;SHT31;53861;53.422;14.530;2024-03-17T15:26:30;7.75;70.15
66096;SHT31;53861;53.422;14.530;2024-03-17T15:29:09;8.00;69.56
66096;SHT31;53861;53.422;14.530;2024-03-17T15:31:49;8.07;70.51
66096;SHT31;53861;53.422;14.530;2024-03-17T15:34:18;8.19;71.13
66096;SHT31;53861;53.422;14.530;2024-03-17T15:36:45;7.96;70.33
66096;SHT31;53861;53.422;14.530;2024-03-17T15:39:14;7.83;70.59
66096;SHT31;53861;53.422;14.530;2024-03-17T15:41:42;7.89;67.84
66096;SHT31;53861;53.422;14.530;2024-03-17T15:44:09;7.95;68.19